Heat Index [SAI AWOS/ASOS Display]_________FAA Disclaimer: "Not for use in aviation at this time______________" Untitled Document
Potsdam Municipal/ Damon Field (PTD)
260
20:36
17/06/24
16
22
N/A
29.70
2000
47403/26
77(F), 25(C)
61(F), 16(C)
78 F
57%
SCT050 SCT070 SCT085
10
N/A
N/A
N/A
20:36 Zulu Wind 260 at 16 Knots, Gusting 22 Knots, Altimeter 29.70
METAR KPTD 242036Z AUTO 26016G22KT 10SM SCT050 SCT070 SCT085 25/16 A2970 A02
METAR:
FAA Disclaimer--Advisory Use ONLY, not for flight info-- 1/17/2017: Current fuel prices are $4.34 per gallon for 100LL, and $3.55 per gallon for Jet A. AWOS phone 315-265-6106 updated 09/18/2014
INFO:
Wind Direction:
Wind Speed:
Wind Gust:
Wind Variable:
Altimeter:
Dens Alt:
Elev:
Temp:
Dwpt:
Heat Index
Rel Humidity:
Ceiling:
Visibility:
Prsnt Wea:
PCPN:
Remarks:
How to read the WebPage